createdAt,value
2023-03-03T00:03:54.991Z,7.47
2023-03-03T00:07:57.286Z,7.45
2023-03-03T00:12:03.363Z,7.46
2023-03-03T00:16:23.422Z,7.50
2023-03-03T00:20:39.330Z,7.28
2023-03-03T00:24:41.945Z,7.22
2023-03-03T00:28:48.705Z,7.29
2023-03-03T00:32:56.059Z,7.23
2023-03-03T00:37:00.576Z,7.10
2023-03-03T00:41:11.923Z,7.13
2023-03-03T00:45:27.278Z,7.23
2023-03-03T00:49:29.651Z,7.14
2023-03-03T00:53:32.039Z,7.13
2023-03-03T00:57:34.856Z,7.35
2023-03-03T01:01:37.617Z,7.45
2023-03-03T01:05:40.481Z,7.48
2023-03-03T01:09:42.907Z,7.43
2023-03-03T01:13:48.906Z,7.44
2023-03-03T01:17:52.373Z,7.38
2023-03-03T01:21:55.550Z,7.37
2023-03-03T01:25:57.775Z,7.28
2023-03-03T01:30:00.870Z,7.17
2023-03-03T01:34:03.242Z,7.20
2023-03-03T01:38:05.580Z,7.19
2023-03-03T01:42:08.327Z,7.34
2023-03-03T01:46:42.616Z,7.39
2023-03-03T01:50:55.119Z,7.57
2023-03-03T01:55:03.419Z,7.64
2023-03-03T01:59:17.219Z,7.70
2023-03-03T02:03:25.986Z,7.87
2023-03-03T02:07:37.801Z,7.97
2023-03-03T02:11:44.895Z,8.00
2023-03-03T02:15:47.236Z,8.01
2023-03-03T02:19:53.166Z,8.01
2023-03-03T02:24:40.579Z,7.88
2023-03-03T02:28:43.502Z,7.86
2023-03-03T02:32:47.428Z,7.78
2023-03-03T02:36:49.648Z,7.90
2023-03-03T02:41:19.891Z,7.89
2023-03-03T02:45:22.161Z,7.89
2023-03-03T02:49:27.543Z,7.84
2023-03-03T02:53:30.048Z,7.80
2023-03-03T02:57:32.404Z,7.69
2023-03-03T03:01:37.458Z,7.48
2023-03-03T03:05:43.384Z,7.57
2023-03-03T03:09:52.358Z,7.56
2023-03-03T03:13:56.278Z,7.51
2023-03-03T03:17:58.649Z,7.40
2023-03-03T03:22:01.415Z,7.35
2023-03-03T03:26:05.999Z,7.32
2023-03-03T03:30:09.503Z,7.40
2023-03-03T03:34:12.204Z,7.45
2023-03-03T03:38:15.581Z,7.59
2023-03-03T03:42:19.284Z,7.63
2023-03-03T03:46:23.124Z,7.64
2023-03-03T03:50:25.591Z,7.66
2023-03-03T03:54:28.333Z,7.69
2023-03-03T03:58:31.088Z,7.77
2023-03-03T04:02:38.326Z,7.81
2023-03-03T04:06:40.925Z,7.89
2023-03-03T04:10:43.636Z,8.00
2023-03-03T04:14:47.209Z,8.05
2023-03-03T04:18:49.399Z,8.09
2023-03-03T04:22:52.896Z,8.05
2023-03-03T04:26:55.164Z,8.09
2023-03-03T04:30:57.523Z,8.11
2023-03-03T04:35:07.517Z,8.06
2023-03-03T04:39:12.593Z,8.18
2023-03-03T04:43:16.127Z,8.10
2023-03-03T04:47:18.452Z,8.08
2023-03-03T04:51:21.218Z,8.01
2023-03-03T04:55:23.659Z,7.98
2023-03-03T04:59:25.943Z,7.93
2023-03-03T05:03:28.823Z,7.96
2023-03-03T05:07:31.309Z,7.94
2023-03-03T05:11:34.073Z,7.97
2023-03-03T05:15:36.714Z,7.96
2023-03-03T05:19:39.019Z,7.92
2023-03-03T05:23:41.608Z,7.89
2023-03-03T05:27:44.294Z,7.88
2023-03-03T05:31:47.837Z,7.85
2023-03-03T05:35:56.857Z,7.74
2023-03-03T05:39:59.107Z,7.72
2023-03-03T05:44:01.494Z,7.77
2023-03-03T05:48:05.009Z,7.74
2023-03-03T05:52:07.923Z,7.73
2023-03-03T05:56:10.170Z,7.54
2023-03-03T06:00:13.970Z,7.37
2023-03-03T06:04:16.316Z,7.42
2023-03-03T06:08:18.816Z,7.43
2023-03-03T06:12:21.378Z,7.41
2023-03-03T06:16:23.869Z,7.42
2023-03-03T06:20:26.406Z,7.54
2023-03-03T06:24:32.603Z,7.64
2023-03-03T06:28:38.807Z,7.70
2023-03-03T06:32:41.104Z,7.86
2023-03-03T06:36:43.276Z,8.00
2023-03-03T06:40:46.275Z,8.13
2023-03-03T06:44:48.498Z,8.20
2023-03-03T06:48:50.739Z,8.29
2023-03-03T06:53:17.307Z,8.41
2023-03-03T06:57:31.059Z,8.46
2023-03-03T07:01:37.479Z,8.75
2023-03-03T07:05:39.845Z,8.93
2023-03-03T07:09:45.813Z,9.18
2023-03-03T07:13:53.262Z,9.17
2023-03-03T07:18:00.130Z,9.34
2023-03-03T07:22:15.307Z,9.47
2023-03-03T07:26:25.674Z,9.90
2023-03-03T07:30:29.963Z,10.18
2023-03-03T07:34:44.096Z,10.28
2023-03-03T07:43:39.500Z,10.15
2023-03-03T07:47:43.571Z,10.17
2023-03-03T07:51:47.097Z,10.09
2023-03-03T07:55:50.020Z,9.97
2023-03-03T08:00:09.643Z,9.91
2023-03-03T08:04:25.462Z,9.74
2023-03-03T08:08:31.341Z,9.92
2023-03-03T08:12:45.289Z,10.11
2023-03-03T08:16:49.163Z,10.26
2023-03-03T08:20:54.702Z,10.47
2023-03-03T08:24:56.794Z,10.50
2023-03-03T08:28:59.026Z,10.53
2023-03-03T08:33:01.886Z,10.51
2023-03-03T08:37:04.482Z,10.61
2023-03-03T08:41:07.561Z,10.64
2023-03-03T08:45:09.968Z,10.67
2023-03-03T08:49:12.147Z,10.97
2023-03-03T08:53:15.307Z,10.88
2023-03-03T08:57:19.030Z,10.91
2023-03-03T09:01:21.514Z,10.90
2023-03-03T09:05:25.303Z,10.69
2023-03-03T09:09:27.808Z,10.82
2023-03-03T09:13:31.503Z,11.07
2023-03-03T09:17:35.492Z,11.24
2023-03-03T09:21:37.646Z,11.30
2023-03-03T09:25:42.334Z,11.08
2023-03-03T09:29:46.858Z,11.12
2023-03-03T09:33:55.495Z,11.17
2023-03-03T09:37:57.713Z,11.14
2023-03-03T09:42:11.766Z,11.20
2023-03-03T09:46:20.174Z,11.33
2023-03-03T09:50:32.877Z,11.28
2023-03-03T09:54:35.118Z,11.28
2023-03-03T09:59:16.347Z,11.40
2023-03-03T10:03:48.280Z,11.53
2023-03-03T10:08:06.953Z,10.98
2023-03-03T10:12:24.836Z,11.01
2023-03-03T10:16:39.471Z,11.06
2023-03-03T10:20:59.906Z,11.12
2023-03-03T10:25:16.010Z,11.48
2023-03-03T10:29:24.142Z,11.94
2023-03-03T10:34:02.959Z,11.66
2023-03-03T10:38:15.234Z,11.87
2023-03-03T10:42:45.599Z,11.73
2023-03-03T10:47:00.717Z,12.12
2023-03-03T10:51:33.817Z,12.26
2023-03-03T10:55:50.197Z,12.78
2023-03-03T11:00:22.086Z,13.05
2023-03-03T11:04:45.771Z,12.78
2023-03-03T11:09:11.393Z,12.41
2023-03-03T11:13:16.851Z,12.54
2023-03-03T11:17:39.574Z,12.91
2023-03-03T11:21:56.299Z,13.14
2023-03-03T11:26:39.709Z,13.54
2023-03-03T11:31:05.024Z,13.31
2023-03-03T11:35:18.318Z,13.29
2023-03-03T11:39:27.762Z,13.66
2023-03-03T11:43:53.350Z,13.73
2023-03-03T11:48:07.517Z,13.89
2023-03-03T11:52:34.176Z,13.76
2023-03-03T11:56:45.567Z,13.50
2023-03-03T12:01:14.641Z,13.24
2023-03-03T12:05:38.582Z,12.92
2023-03-03T12:10:07.030Z,12.95
2023-03-03T12:14:19.259Z,13.01
2023-03-03T12:18:25.339Z,13.48
2023-03-03T12:23:05.935Z,13.39
2023-03-03T12:27:30.581Z,13.76
2023-03-03T12:31:49.222Z,13.57
2023-03-03T12:36:09.989Z,14.03
2023-03-03T12:40:24.552Z,14.19
2023-03-03T12:44:49.967Z,13.76
2023-03-03T12:48:53.608Z,13.56
2023-03-03T12:53:31.497Z,12.93
2023-03-03T12:57:58.899Z,12.63
2023-03-03T13:02:23.134Z,12.63
2023-03-03T13:06:30.388Z,12.73
2023-03-03T13:10:54.860Z,12.48
2023-03-03T13:15:13.810Z,12.57
2023-03-03T13:19:30.833Z,12.92
2023-03-03T13:23:45.186Z,13.49
2023-03-03T13:27:53.026Z,13.72
2023-03-03T13:32:14.132Z,13.52
2023-03-03T13:36:18.020Z,13.56
2023-03-03T13:40:26.617Z,13.80
2023-03-03T13:44:40.694Z,13.79
2023-03-03T13:48:46.531Z,13.64
2023-03-03T13:53:00.309Z,13.64
2023-03-03T13:57:42.044Z,13.93
2023-03-03T14:01:56.128Z,13.78
2023-03-03T14:06:04.635Z,13.01
2023-03-03T14:10:18.697Z,12.86
2023-03-03T14:14:27.620Z,12.74
2023-03-03T14:18:33.081Z,12.96
2023-03-03T14:23:10.488Z,13.06
2023-03-03T14:27:27.575Z,13.03
2023-03-03T14:31:40.026Z,12.68
2023-03-03T14:36:00.627Z,12.61
2023-03-03T14:40:21.898Z,12.55
2023-03-03T14:44:49.454Z,12.41
2023-03-03T14:48:54.429Z,12.29
2023-03-03T14:53:34.438Z,11.93
2023-03-03T14:57:46.575Z,11.97
2023-03-03T15:01:58.556Z,11.98
2023-03-03T15:06:00.817Z,11.85
2023-03-03T15:10:05.372Z,11.60
2023-03-03T15:14:17.662Z,11.48
2023-03-03T15:18:20.998Z,11.48
2023-03-03T15:22:26.159Z,11.64
2023-03-03T15:26:49.921Z,11.40
2023-03-03T15:31:17.379Z,11.31
2023-03-03T15:35:40.256Z,11.28
2023-03-03T15:39:51.069Z,11.28
2023-03-03T15:43:58.829Z,11.24
2023-03-03T15:48:37.695Z,11.01
2023-03-03T15:53:22.118Z,11.06
2023-03-03T15:57:49.247Z,11.07
2023-03-03T16:01:51.578Z,10.91
2023-03-03T16:05:59.629Z,10.91
2023-03-03T16:10:20.806Z,10.80
2023-03-03T16:14:38.886Z,10.68
2023-03-03T16:18:41.589Z,10.62
2023-03-03T16:22:46.805Z,10.59
2023-03-03T16:26:54.702Z,10.40
2023-03-03T16:31:08.081Z,10.27
2023-03-03T16:35:19.103Z,10.24
2023-03-03T16:39:34.268Z,10.18
2023-03-03T16:43:49.508Z,10.22
2023-03-03T16:48:37.830Z,10.04
2023-03-03T16:52:55.445Z,9.98
2023-03-03T16:57:16.647Z,9.88
2023-03-03T17:02:13.076Z,9.77
2023-03-03T17:06:31.551Z,9.64
2023-03-03T17:11:00.280Z,9.67
2023-03-03T17:15:30.998Z,9.63
2023-03-03T17:20:00.948Z,9.53
2023-03-03T17:24:07.042Z,9.45
2023-03-03T17:28:18.870Z,9.51
2023-03-03T17:32:21.576Z,9.49
2023-03-03T17:36:29.756Z,9.43
2023-03-03T17:41:00.463Z,9.34
2023-03-03T17:45:07.964Z,9.36
2023-03-03T17:49:28.899Z,9.29
2023-03-03T17:54:06.413Z,9.20
2023-03-03T17:58:42.942Z,9.15
2023-03-03T18:02:48.208Z,9.09
2023-03-03T18:07:02.841Z,8.99
2023-03-03T18:11:23.418Z,8.98
2023-03-03T18:15:35.048Z,8.90
2023-03-03T18:20:04.727Z,8.76
2023-03-03T18:24:26.483Z,8.71
2023-03-03T18:29:17.377Z,8.67
2023-03-03T18:33:55.763Z,8.59
2023-03-03T18:37:58.848Z,8.56
2023-03-03T18:42:10.255Z,8.54
2023-03-03T18:46:25.559Z,8.50
2023-03-03T18:50:42.878Z,8.46
2023-03-03T18:55:02.049Z,8.40
2023-03-03T18:59:09.445Z,8.43
2023-03-03T19:03:47.683Z,8.39
2023-03-03T19:07:52.833Z,8.39
2023-03-03T19:11:56.984Z,8.42
2023-03-03T19:16:06.471Z,8.38
2023-03-03T19:20:15.681Z,8.33
2023-03-03T19:24:36.752Z,8.27
2023-03-03T19:28:52.483Z,8.30
2023-03-03T19:33:33.636Z,8.26
2023-03-03T19:37:51.333Z,8.22
2023-03-03T19:42:15.295Z,8.19
2023-03-03T19:46:59.994Z,8.17
2023-03-03T19:51:17.396Z,8.10
2023-03-03T19:55:33.368Z,8.04
2023-03-03T20:00:24.749Z,7.91
2023-03-03T20:04:52.535Z,7.79
2023-03-03T20:09:10.104Z,7.89
2023-03-03T20:13:26.475Z,7.83
2023-03-03T20:18:15.403Z,7.88
2023-03-03T20:22:57.022Z,7.97
2023-03-03T20:27:43.265Z,7.95
2023-03-03T20:32:11.273Z,7.94
2023-03-03T20:36:32.831Z,7.83
2023-03-03T20:41:00.685Z,7.77
2023-03-03T20:45:10.988Z,7.74
2023-03-03T20:49:48.076Z,7.64
2023-03-03T20:54:24.228Z,7.51
2023-03-03T20:58:54.339Z,7.64
2023-03-03T21:03:10.135Z,7.64
2023-03-03T21:07:26.448Z,7.40
2023-03-03T21:11:31.578Z,7.23
2023-03-03T21:15:35.777Z,7.07
2023-03-03T21:19:41.574Z,6.63
2023-03-03T21:23:44.067Z,6.66
2023-03-03T21:27:46.323Z,6.54
2023-03-03T21:31:56.051Z,6.36
2023-03-03T21:35:58.763Z,6.32
2023-03-03T21:40:25.400Z,6.13
2023-03-03T21:44:30.658Z,6.10
2023-03-03T21:48:32.828Z,5.96
2023-03-03T21:52:35.207Z,5.86
2023-03-03T21:56:41.777Z,5.61
2023-03-03T22:00:44.334Z,5.59
2023-03-03T22:04:46.545Z,5.54
2023-03-03T22:08:49.008Z,5.33
2023-03-03T22:12:51.320Z,5.19
2023-03-03T22:16:53.909Z,5.27
2023-03-03T22:20:56.167Z,5.23
2023-03-03T22:24:58.675Z,5.03
2023-03-03T22:29:01.661Z,5.19
2023-03-03T22:33:04.125Z,5.22
2023-03-03T22:37:06.357Z,4.96
2023-03-03T22:41:09.207Z,5.01
2023-03-03T22:45:11.817Z,4.93
2023-03-03T22:49:13.938Z,4.69
2023-03-03T22:53:16.047Z,4.64
2023-03-03T22:57:18.165Z,4.66
2023-03-03T23:01:20.303Z,4.54
2023-03-03T23:05:22.554Z,4.54
2023-03-03T23:09:24.950Z,4.40
2023-03-03T23:13:27.632Z,4.43
2023-03-03T23:17:29.892Z,4.40
2023-03-03T23:21:32.223Z,4.38
2023-03-03T23:25:34.488Z,4.37
2023-03-03T23:29:36.755Z,4.31
2023-03-03T23:33:38.818Z,4.18
2023-03-03T23:37:41.072Z,4.24
2023-03-03T23:41:45.110Z,4.30
2023-03-03T23:45:47.226Z,4.20
2023-03-03T23:49:49.424Z,4.26
2023-03-03T23:53:51.541Z,4.32
2023-03-03T23:57:53.716Z,4.31
